Time;durP1;ratioP1;P1;durP2;ratioP2;P2;SDS_P1;SDS_P2;PMS_P1;PMS_P2;Temp;Humidity;BMP_temperature;BMP_pressure;BME280_temperature;BME280_humidity;BME280_pressure;Samples;Min_cycle;Max_cycle;Signal;HPM_P1;HPM_P2
2021/12/10 00:01:55;;;;;;;67.60;28.52;;;;;;;;;;6096081;23;20095;-93
2021/12/10 00:04:23;;;;;;;75.28;30.95;;;;;;;;;;6096566;23;20481;-94
2021/12/10 00:06:50;;;;;;;69.13;31.13;;;;;;;;;;6095856;23;20014;-93
2021/12/10 00:09:18;;;;;;;79.93;30.45;;;;;;;;;;6096021;23;20105;-93
2021/12/10 00:11:47;;;;;;;68.97;30.83;;;;;;;;;;6095775;23;20018;-94
2021/12/10 00:14:14;;;;;;;62.67;29.90;;;;;;;;;;6095989;23;20080;-94
2021/12/10 00:16:41;;;;;;;64.55;28.67;;;;;;;;;;6096383;23;20477;-94
2021/12/10 00:19:44;;;;;;;75.22;31.60;;;;;;;;;;6096136;23;20075;-93
2021/12/10 00:22:01;;;;;;;77.60;29.52;;;;;;;;;;6093058;23;20300;-94
2021/12/10 00:24:30;;;;;;;83.63;31.75;;;;;;;;;;6098313;23;20080;-94
2021/12/10 00:26:57;;;;;;;79.03;30.42;;;;;;;;;;6097947;23;20093;-94
2021/12/10 00:29:24;;;;;;;67.78;29.60;;;;;;;;;;6097754;23;20022;-93
2021/12/10 00:32:01;;;;;;;75.18;31.40;;;;;;;;;;6097906;23;20018;-94
2021/12/10 00:34:30;;;;;;;67.10;28.98;;;;;;;;;;6097740;23;20173;-93
2021/12/10 00:36:58;;;;;;;81.53;31.02;;;;;;;;;;6097072;23;20025;-94
2021/12/10 00:39:28;;;;;;;65.43;29.67;;;;;;;;;;6097051;23;20049;-94
2021/12/10 00:41:55;;;;;;;67.32;27.70;;;;;;;;;;6097367;23;20018;-94
2021/12/10 00:44:21;;;;;;;62.28;28.67;;;;;;;;;;6097476;23;20014;-94
2021/12/10 00:46:47;;;;;;;57.30;24.90;;;;;;;;;;6097497;23;20416;-93
2021/12/10 00:49:13;;;;;;;62.90;28.65;;;;;;;;;;6097514;23;20093;-94
2021/12/10 00:51:40;;;;;;;60.92;27.02;;;;;;;;;;6097245;23;20022;-95
2021/12/10 00:54:07;;;;;;;62.78;27.35;;;;;;;;;;6097491;23;20014;-93
2021/12/10 00:56:33;;;;;;;63.63;25.48;;;;;;;;;;6097201;23;20071;-94
2021/12/10 00:58:59;;;;;;;61.80;27.05;;;;;;;;;;6097529;23;20028;-94
2021/12/10 01:01:27;;;;;;;68.05;27.40;;;;;;;;;;6097271;23;20030;-94
2021/12/10 01:03:58;;;;;;;65.43;28.38;;;;;;;;;;6096790;23;20450;-94
2021/12/10 01:06:25;;;;;;;53.03;24.20;;;;;;;;;;6097786;23;20415;-93
2021/12/10 01:08:53;;;;;;;45.97;22.85;;;;;;;;;;6097756;23;20090;-94
2021/12/10 01:11:30;;;;;;;46.38;23.17;;;;;;;;;;6097605;23;20041;-93
2021/12/10 01:14:09;;;;;;;46.33;21.88;;;;;;;;;;6097530;23;20021;-94
2021/12/10 01:27:33;;;;;;;47.50;22.63;;;;;;;;;;6097617;23;20029;-93
2021/12/10 01:30:04;;;;;;;50.47;21.63;;;;;;;;;;6096726;23;20026;-95
2021/12/10 01:32:33;;;;;;;48.13;22.20;;;;;;;;;;6097524;23;20474;-94
2021/12/10 01:34:59;;;;;;;49.83;22.50;;;;;;;;;;6096430;23;20101;-94
2021/12/10 01:37:25;;;;;;;55.78;23.48;;;;;;;;;;6097234;23;20033;-93
2021/12/10 01:39:52;;;;;;;51.53;21.98;;;;;;;;;;6096898;23;20018;-94
2021/12/10 01:44:48;;;;;;;46.17;21.35;;;;;;;;;;6096989;23;20091;-94
2021/12/10 01:47:16;;;;;;;42.92;19.70;;;;;;;;;;6097344;23;20092;-94
2021/12/10 01:49:43;;;;;;;38.40;20.80;;;;;;;;;;6096497;23;20017;-95
2021/12/10 01:52:09;;;;;;;45.25;20.20;;;;;;;;;;6097525;23;20025;-94
2021/12/10 01:54:41;;;;;;;48.35;22.98;;;;;;;;;;6097081;23;20374;-94
2021/12/10 01:57:08;;;;;;;63.70;22.15;;;;;;;;;;6097249;23;20064;-93
2021/12/10 01:59:36;;;;;;;44.28;21.25;;;;;;;;;;6096698;23;20022;-94
2021/12/10 02:02:09;;;;;;;49.90;22.65;;;;;;;;;;6096265;23;20018;-93
2021/12/10 02:04:36;;;;;;;47.08;23.48;;;;;;;;;;6097211;23;20026;-93
2021/12/10 02:07:03;;;;;;;53.22;23.05;;;;;;;;;;6097065;23;20073;-94
2021/12/10 02:09:29;;;;;;;51.05;25.27;;;;;;;;;;6097166;23;20018;-93
2021/12/10 02:11:56;;;;;;;50.97;22.95;;;;;;;;;;6096562;23;20018;-94
2021/12/10 02:14:23;;;;;;;47.08;22.88;;;;;;;;;;6096934;23;20018;-94
2021/12/10 02:16:50;;;;;;;51.53;24.08;;;;;;;;;;6096190;23;20081;-94
2021/12/10 02:19:16;;;;;;;55.67;24.92;;;;;;;;;;6096927;23;20069;-94
2021/12/10 02:21:43;;;;;;;47.75;22.52;;;;;;;;;;6096705;23;20098;-94
2021/12/10 02:24:10;;;;;;;50.17;23.95;;;;;;;;;;6097004;23;20022;-94
2021/12/10 02:26:41;;;;;;;46.60;22.27;;;;;;;;;;6097187;23;20075;-94
2021/12/10 02:29:08;;;;;;;45.95;23.60;;;;;;;;;;6097016;23;20083;-93
2021/12/10 02:31:34;;;;;;;51.35;22.95;;;;;;;;;;6096394;23;20474;-94
2021/12/10 02:34:01;;;;;;;53.20;23.10;;;;;;;;;;6096574;23;20382;-94
2021/12/10 02:36:28;;;;;;;50.95;24.30;;;;;;;;;;6096919;23;20411;-94
2021/12/10 02:38:54;;;;;;;56.42;24.80;;;;;;;;;;6096374;23;20529;-94
2021/12/10 02:41:23;;;;;;;48.17;23.65;;;;;;;;;;6096823;23;20405;-93
2021/12/10 02:43:49;;;;;;;43.38;20.75;;;;;;;;;;6096279;23;20025;-93
2021/12/10 02:46:15;;;;;;;45.47;21.95;;;;;;;;;;6096463;23;20026;-94
2021/12/10 02:48:41;;;;;;;52.03;24.33;;;;;;;;;;6096466;23;20018;-92
2021/12/10 02:51:08;;;;;;;49.65;22.23;;;;;;;;;;6096507;23;20532;-93
2021/12/10 02:53:40;;;;;;;47.20;21.60;;;;;;;;;;6096675;23;20018;-93
2021/12/10 02:56:06;;;;;;;44.42;21.40;;;;;;;;;;6096622;23;20029;-92
2021/12/10 02:58:33;;;;;;;43.40;22.17;;;;;;;;;;6096134;23;20021;-93
2021/12/10 03:00:59;;;;;;;51.15;21.13;;;;;;;;;;6095918;23;20609;-93
2021/12/10 03:03:25;;;;;;;45.28;21.10;;;;;;;;;;6096524;23;20024;-93
2021/12/10 03:05:51;;;;;;;46.00;23.50;;;;;;;;;;6096016;23;20018;-92
2021/12/10 03:08:17;;;;;;;49.53;23.92;;;;;;;;;;6096841;23;20018;-93
2021/12/10 03:10:44;;;;;;;46.10;24.08;;;;;;;;;;6096196;23;20362;-93
2021/12/10 03:13:11;;;;;;;46.55;22.23;;;;;;;;;;6096211;23;20025;-93
2021/12/10 03:15:38;;;;;;;49.83;24.88;;;;;;;;;;6095771;23;20029;-93
2021/12/10 03:18:06;;;;;;;54.53;26.30;;;;;;;;;;6095797;23;20068;-93
2021/12/10 03:20:32;;;;;;;51.63;25.00;;;;;;;;;;6096216;23;20108;-93
2021/12/10 03:22:59;;;;;;;43.50;23.52;;;;;;;;;;6096034;23;20093;-93
2021/12/10 03:25:25;;;;;;;57.78;27.15;;;;;;;;;;6096276;23;20032;-92
2021/12/10 03:27:51;;;;;;;52.95;26.67;;;;;;;;;;6096079;23;20014;-94
2021/12/10 03:30:20;;;;;;;51.08;26.98;;;;;;;;;;6095886;23;20556;-92
2021/12/10 03:32:46;;;;;;;51.83;27.85;;;;;;;;;;6096063;23;20021;-93
2021/12/10 03:35:15;;;;;;;50.35;26.73;;;;;;;;;;6095586;23;20014;-92
2021/12/10 03:37:42;;;;;;;49.72;23.45;;;;;;;;;;6096144;23;20024;-92
2021/12/10 03:40:09;;;;;;;37.55;22.23;;;;;;;;;;6096108;23;20332;-94
2021/12/10 03:42:35;;;;;;;42.53;24.13;;;;;;;;;;6096297;23;20109;-92
2021/12/10 03:45:01;;;;;;;50.47;26.35;;;;;;;;;;6095579;23;20018;-92
2021/12/10 03:47:27;;;;;;;44.03;25.25;;;;;;;;;;6096331;23;20018;-93
2021/12/10 03:49:53;;;;;;;49.97;24.27;;;;;;;;;;6095275;23;20025;-93
2021/12/10 03:52:19;;;;;;;56.88;25.80;;;;;;;;;;6096047;23;20018;-93
2021/12/10 03:54:46;;;;;;;48.60;24.70;;;;;;;;;;6097693;23;20187;-92
2021/12/10 03:57:13;;;;;;;45.28;24.75;;;;;;;;;;6098290;23;20073;-92
2021/12/10 03:59:39;;;;;;;46.92;24.98;;;;;;;;;;6097898;23;20096;-93
2021/12/10 04:02:07;;;;;;;47.15;25.08;;;;;;;;;;6097569;23;20073;-92
2021/12/10 04:04:35;;;;;;;52.60;26.08;;;;;;;;;;6098716;23;20450;-92
2021/12/10 04:07:02;;;;;;;50.55;27.35;;;;;;;;;;6097844;23;20072;-93
2021/12/10 04:09:28;;;;;;;54.63;26.85;;;;;;;;;;6098214;23;20022;-93
2021/12/10 04:11:55;;;;;;;50.08;26.65;;;;;;;;;;6098002;23;20022;-92
2021/12/10 04:14:22;;;;;;;48.85;26.45;;;;;;;;;;6097918;23;20036;-92
2021/12/10 04:16:54;;;;;;;57.30;28.13;;;;;;;;;;6098004;23;20025;-92
2021/12/10 04:19:21;;;;;;;52.95;26.90;;;;;;;;;;6098209;23;20028;-92
2021/12/10 04:21:47;;;;;;;49.78;27.88;;;;;;;;;;6097904;23;20129;-92
2021/12/10 04:24:19;;;;;;;55.45;25.98;;;;;;;;;;6097990;23;20029;-92
2021/12/10 04:26:45;;;;;;;54.33;27.80;;;;;;;;;;6097853;23;20024;-91
2021/12/10 04:29:12;;;;;;;50.65;25.20;;;;;;;;;;6097574;23;20599;-92
2021/12/10 04:31:38;;;;;;;54.83;27.00;;;;;;;;;;6098173;23;20021;-92
2021/12/10 04:34:05;;;;;;;58.08;26.73;;;;;;;;;;6097621;23;20014;-92
2021/12/10 04:36:32;;;;;;;60.38;27.30;;;;;;;;;;6097880;23;20518;-91
2021/12/10 04:38:58;;;;;;;57.75;27.35;;;;;;;;;;6097580;23;20096;-92
2021/12/10 04:41:24;;;;;;;53.55;27.35;;;;;;;;;;6097828;23;20029;-91
2021/12/10 04:43:50;;;;;;;52.10;25.23;;;;;;;;;;6097863;23;20022;-92
2021/12/10 04:46:17;;;;;;;55.05;26.88;;;;;;;;;;6098115;23;20018;-91
2021/12/10 04:48:48;;;;;;;50.90;27.30;;;;;;;;;;6097867;23;20082;-92
2021/12/10 04:51:14;;;;;;;56.88;27.70;;;;;;;;;;6097789;23;20085;-92
2021/12/10 04:53:40;;;;;;;58.67;27.50;;;;;;;;;;6097651;23;20018;-92
2021/12/10 04:56:06;;;;;;;59.78;28.02;;;;;;;;;;6097421;23;20076;-92
2021/12/10 04:58:32;;;;;;;61.80;27.35;;;;;;;;;;6097552;23;20077;-93
2021/12/10 05:01:00;;;;;;;52.00;26.42;;;;;;;;;;6097645;23;20017;-92
2021/12/10 05:03:26;;;;;;;58.97;30.02;;;;;;;;;;6097764;23;20014;-93
2021/12/10 05:05:59;;;;;;;60.35;27.27;;;;;;;;;;6097037;23;20470;-93
2021/12/10 05:08:25;;;;;;;58.20;28.63;;;;;;;;;;6097872;23;20022;-92
2021/12/10 05:10:51;;;;;;;61.42;30.02;;;;;;;;;;6096621;23;20021;-92
2021/12/10 05:13:17;;;;;;;59.40;30.67;;;;;;;;;;6097331;23;20037;-92
2021/12/10 05:15:44;;;;;;;62.15;30.20;;;;;;;;;;6097145;23;20065;-93
2021/12/10 05:18:13;;;;;;;60.53;29.48;;;;;;;;;;6097481;23;20020;-91
2021/12/10 05:20:41;;;;;;;60.08;29.45;;;;;;;;;;6097393;23;20203;-92
2021/12/10 05:23:07;;;;;;;60.70;29.25;;;;;;;;;;6097892;23;20022;-92
2021/12/10 05:25:34;;;;;;;64.70;31.15;;;;;;;;;;6097180;23;20069;-92
2021/12/10 05:28:00;;;;;;;64.35;30.83;;;;;;;;;;6097060;23;20021;-92
2021/12/10 05:30:29;;;;;;;63.83;30.30;;;;;;;;;;6097332;23;20018;-92
2021/12/10 05:32:56;;;;;;;67.25;32.13;;;;;;;;;;6096971;23;20022;-92
2021/12/10 05:35:22;;;;;;;69.45;31.60;;;;;;;;;;6096963;23;20076;-91
2021/12/10 05:37:48;;;;;;;61.10;30.23;;;;;;;;;;6096750;23;20438;-91
2021/12/10 05:40:16;;;;;;;68.97;30.52;;;;;;;;;;6096764;23;20115;-91
2021/12/10 05:42:43;;;;;;;63.33;29.15;;;;;;;;;;6097015;23;20585;-92
2021/12/10 05:45:09;;;;;;;65.22;30.13;;;;;;;;;;6097231;23;20036;-92
2021/12/10 05:47:35;;;;;;;62.67;29.48;;;;;;;;;;6097185;23;20029;-93
2021/12/10 05:50:01;;;;;;;54.33;27.58;;;;;;;;;;6097006;23;20021;-92
2021/12/10 05:52:27;;;;;;;58.40;26.65;;;;;;;;;;6096886;23;20066;-92
2021/12/10 05:54:53;;;;;;;55.25;27.13;;;;;;;;;;6096055;23;20355;-91
2021/12/10 05:57:19;;;;;;;61.85;29.17;;;;;;;;;;6096841;23;20018;-92
2021/12/10 05:59:46;;;;;;;54.53;25.98;;;;;;;;;;6096842;23;20022;-91
2021/12/10 06:02:12;;;;;;;51.70;26.35;;;;;;;;;;6096889;23;20017;-92
2021/12/10 06:04:38;;;;;;;55.92;28.27;;;;;;;;;;6097010;23;20014;-91
2021/12/10 06:07:05;;;;;;;52.35;25.77;;;;;;;;;;6096650;23;20036;-92
2021/12/10 06:09:32;;;;;;;56.22;25.40;;;;;;;;;;6096346;23;20018;-92
2021/12/10 06:11:58;;;;;;;47.70;25.38;;;;;;;;;;6096221;23;20026;-92
2021/12/10 06:14:24;;;;;;;54.17;26.58;;;;;;;;;;6096658;23;20459;-92
2021/12/10 06:16:52;;;;;;;50.20;24.73;;;;;;;;;;6096664;23;20485;-91
2021/12/10 06:19:19;;;;;;;50.60;24.90;;;;;;;;;;6096663;23;20018;-93
2021/12/10 06:21:45;;;;;;;45.78;23.67;;;;;;;;;;6096550;23;20029;-92
2021/12/10 06:24:11;;;;;;;46.75;24.65;;;;;;;;;;6094547;23;20020;-92
2021/12/10 06:26:37;;;;;;;51.63;24.90;;;;;;;;;;6097052;23;20096;-92
2021/12/10 06:29:03;;;;;;;44.35;22.75;;;;;;;;;;6096077;23;20018;-92
2021/12/10 06:31:30;;;;;;;51.53;24.60;;;;;;;;;;6096334;23;20029;-93
2021/12/10 06:33:56;;;;;;;47.75;22.45;;;;;;;;;;6096464;23;20022;-93
2021/12/10 06:36:23;;;;;;;50.13;24.50;;;;;;;;;;6096762;23;20462;-92
2021/12/10 06:38:49;;;;;;;48.22;24.05;;;;;;;;;;6096008;23;20014;-93
2021/12/10 06:41:16;;;;;;;40.10;22.20;;;;;;;;;;6097192;23;20022;-92
2021/12/10 06:43:42;;;;;;;44.35;22.20;;;;;;;;;;6096225;23;20022;-92
2021/12/10 06:46:08;;;;;;;46.42;23.30;;;;;;;;;;6096647;23;20014;-93
2021/12/10 06:48:35;;;;;;;44.47;23.73;;;;;;;;;;6097125;23;20022;-92
2021/12/10 06:51:03;;;;;;;47.75;21.30;;;;;;;;;;6096340;23;20133;-92
2021/12/10 06:53:30;;;;;;;43.33;21.70;;;;;;;;;;6095412;23;20426;-93
2021/12/10 06:55:56;;;;;;;45.25;22.38;;;;;;;;;;6096297;23;20086;-93
2021/12/10 06:58:23;;;;;;;41.15;20.92;;;;;;;;;;6096891;23;20350;-93
2021/12/10 07:00:49;;;;;;;39.90;20.85;;;;;;;;;;6096399;23;20018;-94
2021/12/10 07:03:18;;;;;;;42.08;21.00;;;;;;;;;;6097003;23;20018;-93
2021/12/10 07:05:44;;;;;;;46.50;22.23;;;;;;;;;;6096461;23;20045;-92
2021/12/10 07:08:10;;;;;;;47.08;22.17;;;;;;;;;;6096229;23;20026;-93
2021/12/10 07:10:36;;;;;;;48.25;22.05;;;;;;;;;;6096409;23;20416;-93
2021/12/10 07:13:06;;;;;;;43.15;20.75;;;;;;;;;;6096427;23;20022;-94
2021/12/10 07:15:32;;;;;;;44.13;20.83;;;;;;;;;;6096524;23;20060;-91
2021/12/10 07:17:58;;;;;;;42.47;20.50;;;;;;;;;;6096253;23;20466;-94
2021/12/10 07:20:24;;;;;;;48.67;21.50;;;;;;;;;;6095546;23;20025;-92
2021/12/10 07:22:51;;;;;;;42.60;20.88;;;;;;;;;;6094788;23;20517;-92
2021/12/10 07:25:17;;;;;;;41.22;21.40;;;;;;;;;;6095436;23;20029;-93
2021/12/10 07:27:44;;;;;;;41.42;20.23;;;;;;;;;;6095237;23;20030;-93
2021/12/10 07:30:10;;;;;;;44.83;20.33;;;;;;;;;;6095861;23;20022;-93
2021/12/10 07:32:36;;;;;;;44.60;20.15;;;;;;;;;;6095050;23;20021;-92
2021/12/10 07:35:04;;;;;;;40.33;19.30;;;;;;;;;;6095323;23;20088;-94
2021/12/10 07:37:29;;;;;;;37.00;18.88;;;;;;;;;;6095938;23;20018;-92
2021/12/10 07:39:55;;;;;;;38.10;18.33;;;;;;;;;;6095445;23;20358;-91
2021/12/10 07:42:21;;;;;;;38.30;17.70;;;;;;;;;;6094923;23;20072;-90
2021/12/10 07:44:47;;;;;;;40.92;17.80;;;;;;;;;;6095491;23;20025;-91
2021/12/10 07:47:14;;;;;;;31.60;17.30;;;;;;;;;;6095410;23;20017;-91
2021/12/10 07:49:42;;;;;;;37.17;17.35;;;;;;;;;;6095705;23;20053;-91
2021/12/10 07:52:15;;;;;;;33.38;16.50;;;;;;;;;;6095020;23;20028;-91
2021/12/10 07:54:42;;;;;;;32.15;16.63;;;;;;;;;;6095138;23;20340;-92
2021/12/10 07:57:08;;;;;;;33.13;15.77;;;;;;;;;;6095839;23;20025;-92
2021/12/10 07:59:35;;;;;;;37.95;16.48;;;;;;;;;;6095299;23;20512;-91
2021/12/10 08:02:01;;;;;;;31.77;15.43;;;;;;;;;;6094547;23;20093;-91
2021/12/10 08:04:27;;;;;;;28.02;14.50;;;;;;;;;;6094870;23;20101;-92
2021/12/10 08:06:53;;;;;;;31.65;15.35;;;;;;;;;;6095227;23;20054;-91
2021/12/10 08:09:19;;;;;;;32.53;14.90;;;;;;;;;;6095812;23;20064;-92
2021/12/10 08:11:45;;;;;;;34.70;15.30;;;;;;;;;;6087135;23;20482;-93
2021/12/10 08:14:11;;;;;;;32.58;15.20;;;;;;;;;;6094182;23;20090;-92
2021/12/10 08:16:39;;;;;;;30.77;14.05;;;;;;;;;;6094353;23;20422;-94
2021/12/10 08:19:07;;;;;;;33.65;15.02;;;;;;;;;;6097012;23;20023;-93
2021/12/10 08:21:33;;;;;;;30.50;14.75;;;;;;;;;;6094637;23;20104;-92
2021/12/10 08:23:59;;;;;;;32.42;15.13;;;;;;;;;;6094951;23;20323;-94
2021/12/10 08:26:26;;;;;;;30.27;14.93;;;;;;;;;;6094718;23;20037;-93
2021/12/10 08:28:52;;;;;;;30.48;15.00;;;;;;;;;;6094630;23;20018;-91
2021/12/10 08:31:19;;;;;;;26.92;13.98;;;;;;;;;;6105682;23;20014;-96
2021/12/10 08:33:48;;;;;;;29.45;14.25;;;;;;;;;;6095335;23;20156;-93
2021/12/10 08:36:15;;;;;;;31.33;14.35;;;;;;;;;;6095673;23;20346;-94
2021/12/10 08:38:41;;;;;;;29.15;14.00;;;;;;;;;;6095759;23;20025;-88
2021/12/10 08:41:09;;;;;;;30.48;14.02;;;;;;;;;;6094728;23;20077;-89
2021/12/10 08:43:36;;;;;;;27.30;14.20;;;;;;;;;;6097148;23;20051;-92
2021/12/10 08:46:04;;;;;;;28.77;13.93;;;;;;;;;;6097667;23;20418;-90
2021/12/10 08:48:31;;;;;;;26.20;13.07;;;;;;;;;;6096891;23;20100;-94
2021/12/10 08:50:58;;;;;;;22.73;13.68;;;;;;;;;;6096331;23;20113;-93
2021/12/10 08:53:24;;;;;;;23.27;13.48;;;;;;;;;;6097126;23;20399;-93
2021/12/10 08:55:51;;;;;;;23.80;13.32;;;;;;;;;;6095508;23;20029;-91
2021/12/10 08:58:18;;;;;;;26.38;13.40;;;;;;;;;;6096454;23;20018;-90
2021/12/10 09:00:49;;;;;;;25.85;12.88;;;;;;;;;;6095866;23;20354;-90
2021/12/10 09:03:15;;;;;;;27.98;13.43;;;;;;;;;;6096292;23;20529;-88
2021/12/10 09:05:41;;;;;;;23.55;13.20;;;;;;;;;;6095719;23;20024;-90
2021/12/10 09:08:08;;;;;;;23.45;12.30;;;;;;;;;;6097297;23;20045;-94
2021/12/10 09:10:35;;;;;;;22.63;11.95;;;;;;;;;;6096205;23;20267;-93
2021/12/10 09:13:01;;;;;;;22.90;12.85;;;;;;;;;;6095165;23;20025;-89
2021/12/10 09:15:28;;;;;;;21.15;11.85;;;;;;;;;;6097074;23;20017;-90
2021/12/10 09:17:58;;;;;;;27.15;12.30;;;;;;;;;;6096539;23;20021;-90
2021/12/10 09:20:26;;;;;;;21.08;11.30;;;;;;;;;;6097910;23;20358;-93
2021/12/10 09:22:53;;;;;;;24.17;11.73;;;;;;;;;;6097564;23;20020;-92
2021/12/10 09:25:19;;;;;;;21.00;11.57;;;;;;;;;;6096580;23;20102;-93
2021/12/10 09:27:45;;;;;;;24.58;13.68;;;;;;;;;;6097311;23;20037;-89
2021/12/10 09:30:14;;;;;;;20.08;11.70;;;;;;;;;;6097027;23;20104;-92
2021/12/10 09:32:40;;;;;;;23.20;12.18;;;;;;;;;;6096733;23;20061;-93
2021/12/10 09:35:07;;;;;;;20.27;12.27;;;;;;;;;;6096225;23;20382;-93
2021/12/10 09:37:35;;;;;;;20.55;12.18;;;;;;;;;;6096755;23;20025;-93
2021/12/10 09:40:04;;;;;;;21.02;10.70;;;;;;;;;;6096061;23;20025;-92
2021/12/10 09:42:30;;;;;;;23.92;11.20;;;;;;;;;;6097030;23;20021;-93
2021/12/10 09:44:57;;;;;;;16.15;10.60;;;;;;;;;;6096842;23;20068;-93
2021/12/10 09:47:23;;;;;;;19.52;10.45;;;;;;;;;;6095535;23;20068;-92
2021/12/10 09:49:51;;;;;;;16.33;9.57;;;;;;;;;;6095630;23;20025;-91
2021/12/10 09:52:19;;;;;;;24.13;11.35;;;;;;;;;;6094796;23;20463;-94
2021/12/10 09:54:45;;;;;;;20.63;10.35;;;;;;;;;;6096406;23;20030;-95
2021/12/10 09:57:14;;;;;;;17.30;10.38;;;;;;;;;;6096697;23;20020;-91
2021/12/10 09:59:42;;;;;;;20.33;10.18;;;;;;;;;;6096213;23;20014;-95
2021/12/10 10:02:08;;;;;;;25.75;9.93;;;;;;;;;;6096434;23;20018;-94
2021/12/10 10:04:36;;;;;;;21.38;9.95;;;;;;;;;;6071891;23;20029;-89
2021/12/10 10:07:05;;;;;;;15.90;9.80;;;;;;;;;;6072667;23;20108;-93
2021/12/10 10:09:31;;;;;;;16.73;9.40;;;;;;;;;;6072853;23;20094;-91
2021/12/10 10:12:03;;;;;;;15.07;9.15;;;;;;;;;;6071765;23;20053;-91
2021/12/10 10:14:30;;;;;;;17.25;9.98;;;;;;;;;;6071744;23;20093;-91
2021/12/10 10:16:56;;;;;;;20.40;9.38;;;;;;;;;;6094760;23;20086;-92
2021/12/10 10:19:22;;;;;;;14.85;8.80;;;;;;;;;;6071761;23;20054;-89
2021/12/10 10:21:51;;;;;;;17.13;9.43;;;;;;;;;;6070968;23;20013;-95
2021/12/10 10:24:18;;;;;;;16.35;9.50;;;;;;;;;;6071201;23;20475;-92
2021/12/10 10:26:46;;;;;;;15.82;9.18;;;;;;;;;;6070074;23;20020;-94
2021/12/10 10:29:14;;;;;;;13.88;8.75;;;;;;;;;;6071872;23;20178;-92
2021/12/10 10:31:50;;;;;;;14.75;8.98;;;;;;;;;;6071294;23;20022;-93
2021/12/10 10:34:16;;;;;;;16.50;9.07;;;;;;;;;;6072069;23;20709;-92
2021/12/10 10:36:42;;;;;;;15.50;8.93;;;;;;;;;;6071596;23;20351;-91
2021/12/10 10:39:14;;;;;;;16.35;8.35;;;;;;;;;;6072962;23;20018;-92
2021/12/10 10:41:41;;;;;;;16.05;9.05;;;;;;;;;;6071212;23;20113;-90
2021/12/10 10:44:07;;;;;;;15.32;8.13;;;;;;;;;;6094821;23;20025;-93
2021/12/10 10:46:34;;;;;;;15.82;8.45;;;;;;;;;;6072427;23;20053;-91
2021/12/10 10:49:00;;;;;;;21.55;9.80;;;;;;;;;;6097237;23;20010;-96
2021/12/10 10:51:38;;;;;;;14.13;8.27;;;;;;;;;;6098536;23;20030;-94
2021/12/10 10:54:07;;;;;;;13.07;8.07;;;;;;;;;;6073620;23;20028;-92
2021/12/10 10:56:34;;;;;;;15.55;8.85;;;;;;;;;;6072281;23;20022;-92
2021/12/10 10:59:02;;;;;;;14.27;8.82;;;;;;;;;;6070941;23;20024;-91
2021/12/10 11:01:32;;;;;;;15.27;8.75;;;;;;;;;;6072487;23;20060;-93
2021/12/10 11:04:08;;;;;;;18.75;8.25;;;;;;;;;;6070572;23;20131;-92
2021/12/10 11:06:39;;;;;;;14.80;8.80;;;;;;;;;;6072241;23;20022;-90
2021/12/10 11:09:11;;;;;;;13.27;7.70;;;;;;;;;;6096305;23;20410;-94
2021/12/10 11:11:41;;;;;;;16.30;8.73;;;;;;;;;;6096297;23;20028;-93
2021/12/10 11:14:12;;;;;;;11.30;7.18;;;;;;;;;;6095547;23;20021;-93
2021/12/10 11:16:40;;;;;;;15.30;8.18;;;;;;;;;;6095277;23;20081;-93
2021/12/10 11:19:08;;;;;;;13.32;7.78;;;;;;;;;;6095342;23;20018;-92
2021/12/10 11:21:47;;;;;;;13.13;7.78;;;;;;;;;;6071604;23;20074;-93
2021/12/10 11:24:16;;;;;;;15.75;7.28;;;;;;;;;;6095685;23;20026;-94
2021/12/10 11:26:47;;;;;;;15.52;7.45;;;;;;;;;;6071555;23;20352;-92
2021/12/10 11:29:29;;;;;;;10.65;6.55;;;;;;;;;;6071311;23;20014;-94
2021/12/10 11:31:59;;;;;;;14.35;7.25;;;;;;;;;;6072708;23;20030;-93
2021/12/10 11:34:45;;;;;;;17.98;8.48;;;;;;;;;;6071858;23;20025;-93
2021/12/10 11:37:12;;;;;;;12.38;6.88;;;;;;;;;;6072515;23;20107;-92
2021/12/10 11:39:52;;;;;;;12.80;7.20;;;;;;;;;;6071505;23;20022;-92
2021/12/10 11:42:41;;;;;;;15.90;7.38;;;;;;;;;;6071179;23;20021;-94
2021/12/10 11:45:31;;;;;;;13.48;6.95;;;;;;;;;;6071460;23;20029;-93
2021/12/10 11:48:06;;;;;;;12.20;6.85;;;;;;;;;;6071604;23;20383;-94
2021/12/10 11:50:32;;;;;;;10.85;7.22;;;;;;;;;;6071437;23;20018;-92
2021/12/10 11:53:10;;;;;;;15.45;6.80;;;;;;;;;;6071489;23;20482;-92
2021/12/10 11:55:36;;;;;;;14.32;7.25;;;;;;;;;;6071617;23;20026;-93
2021/12/10 11:58:03;;;;;;;15.25;6.53;;;;;;;;;;6071019;23;20061;-93
2021/12/10 12:00:32;;;;;;;14.73;6.97;;;;;;;;;;6071418;23;20025;-92
2021/12/10 12:03:00;;;;;;;11.35;6.70;;;;;;;;;;6095224;23;20029;-93
2021/12/10 12:05:28;;;;;;;12.05;6.75;;;;;;;;;;6071261;23;20021;-94
2021/12/10 12:07:56;;;;;;;13.38;6.38;;;;;;;;;;6071612;23;20382;-95
2021/12/10 12:10:37;;;;;;;17.27;6.57;;;;;;;;;;6096654;23;20021;-93
2021/12/10 12:13:33;;;;;;;12.52;6.70;;;;;;;;;;6096763;23;20053;-93
2021/12/10 12:16:01;;;;;;;13.80;6.40;;;;;;;;;;6097702;23;20014;-90
2021/12/10 12:18:30;;;;;;;11.18;6.38;;;;;;;;;;6098044;23;20029;-90
2021/12/10 12:21:00;;;;;;;13.25;6.60;;;;;;;;;;6073485;23;20057;-92
2021/12/10 12:26:21;;;;;;;14.60;6.82;;;;;;;;;;6097268;23;20022;-90
2021/12/10 12:28:49;;;;;;;17.48;6.38;;;;;;;;;;6072732;23;20431;-90
2021/12/10 12:31:22;;;;;;;18.33;6.65;;;;;;;;;;6073852;23;20253;-92
2021/12/10 12:33:57;;;;;;;13.23;6.05;;;;;;;;;;6098234;23;20049;-91
2021/12/10 12:36:24;;;;;;;16.25;6.20;;;;;;;;;;6097253;23;20022;-95
2021/12/10 12:38:50;;;;;;;12.25;5.53;;;;;;;;;;6074071;23;20014;-93
2021/12/10 12:41:18;;;;;;;11.48;5.60;;;;;;;;;;6098091;23;20497;-93
2021/12/10 12:43:46;;;;;;;14.50;6.05;;;;;;;;;;6074380;23;20073;-95
2021/12/10 12:46:12;;;;;;;11.15;6.10;;;;;;;;;;6098564;23;20020;-96
2021/12/10 12:48:53;;;;;;;19.10;6.03;;;;;;;;;;6072677;23;20673;-89
2021/12/10 12:51:21;;;;;;;13.65;6.13;;;;;;;;;;6072021;23;20561;-91
2021/12/10 12:53:48;;;;;;;12.48;5.93;;;;;;;;;;6073022;23;20018;-90
2021/12/10 12:56:14;;;;;;;11.60;5.63;;;;;;;;;;6095660;23;20033;-92
2021/12/10 12:58:41;;;;;;;17.27;7.07;;;;;;;;;;6073709;23;20018;-94
2021/12/10 13:01:18;;;;;;;9.80;5.80;;;;;;;;;;6073696;23;20024;-91
2021/12/10 13:03:55;;;;;;;13.35;6.07;;;;;;;;;;6073355;23;20025;-91
2021/12/10 13:06:26;;;;;;;11.55;5.97;;;;;;;;;;6072870;23;20045;-93
2021/12/10 13:09:09;;;;;;;11.57;6.30;;;;;;;;;;6073034;23;20443;-89
2021/12/10 13:11:49;;;;;;;11.38;5.90;;;;;;;;;;6073573;23;20022;-92
2021/12/10 13:14:19;;;;;;;15.68;6.07;;;;;;;;;;6074016;23;20057;-91
2021/12/10 13:16:51;;;;;;;14.18;6.40;;;;;;;;;;6073083;23;20068;-92
2021/12/10 13:19:19;;;;;;;11.60;5.75;;;;;;;;;;6074031;23;20025;-94
2021/12/10 13:21:47;;;;;;;15.40;5.97;;;;;;;;;;6073843;23;20021;-89
2021/12/10 13:24:15;;;;;;;13.63;6.22;;;;;;;;;;6072381;23;20077;-89
2021/12/10 13:26:41;;;;;;;15.13;6.00;;;;;;;;;;6094358;23;20470;-92
2021/12/10 13:29:08;;;;;;;15.40;5.80;;;;;;;;;;6095974;23;20509;-94
2021/12/10 13:31:35;;;;;;;12.50;5.43;;;;;;;;;;6072959;23;20497;-89
2021/12/10 13:34:01;;;;;;;18.65;6.80;;;;;;;;;;6096945;23;20062;-89
2021/12/10 13:36:27;;;;;;;16.02;6.50;;;;;;;;;;6073548;23;20033;-93
2021/12/10 13:38:55;;;;;;;11.55;5.55;;;;;;;;;;6096423;23;20062;-95
2021/12/10 13:41:22;;;;;;;11.93;6.40;;;;;;;;;;6074149;23;20014;-96
2021/12/10 13:43:51;;;;;;;17.27;7.13;;;;;;;;;;6073054;23;20017;-95
2021/12/10 13:46:17;;;;;;;1999.90;515.28;;;;;;;;;;6075717;23;20025;-95
2021/12/10 13:48:52;;;;;;;1999.90;530.25;;;;;;;;;;6102113;23;20073;-96
2021/12/10 13:51:24;;;;;;;52.35;9.02;;;;;;;;;;6108268;23;20029;-94
2021/12/10 13:54:22;;;;;;;39.92;7.55;;;;;;;;;;6072141;23;20043;-92
2021/12/10 13:56:55;;;;;;;1999.90;416.92;;;;;;;;;;6045452;23;20097;-93
2021/12/10 13:59:30;;;;;;;133.15;13.25;;;;;;;;;;6097159;23;20018;-91
2021/12/10 14:01:57;;;;;;;75.63;11.25;;;;;;;;;;6097073;23;20033;-91
2021/12/10 14:04:25;;;;;;;31.30;7.75;;;;;;;;;;6095398;23;20095;-93
2021/12/10 14:06:57;;;;;;;1935.50;230.15;;;;;;;;;;6094921;23;20049;-91
2021/12/10 14:09:40;;;;;;;47.47;9.18;;;;;;;;;;6095462;23;20025;-92
2021/12/10 14:12:39;;;;;;;44.72;8.20;;;;;;;;;;6097104;23;20746;-92
2021/12/10 14:15:05;;;;;;;114.25;16.70;;;;;;;;;;6095422;23;20033;-92
2021/12/10 14:17:32;;;;;;;500.17;46.55;;;;;;;;;;6097123;23;20029;-92
2021/12/10 14:20:06;;;;;;;17.80;7.25;;;;;;;;;;6096759;23;20675;-92
2021/12/10 14:22:42;;;;;;;27.92;7.60;;;;;;;;;;6072358;23;20022;-92
2021/12/10 14:25:23;;;;;;;28.05;8.15;;;;;;;;;;6073464;23;20018;-93
2021/12/10 14:27:51;;;;;;;13.05;6.25;;;;;;;;;;6072551;23;20154;-95
2021/12/10 14:30:23;;;;;;;18.15;7.18;;;;;;;;;;6072628;23;20022;-89
2021/12/10 14:33:03;;;;;;;14.95;6.82;;;;;;;;;;6072384;23;20049;-89
2021/12/10 14:35:37;;;;;;;17.40;6.63;;;;;;;;;;6072385;23;20025;-90
2021/12/10 14:38:05;;;;;;;13.75;6.88;;;;;;;;;;6095250;23;20018;-89
2021/12/10 14:40:34;;;;;;;15.02;6.63;;;;;;;;;;6096730;23;20022;-89
2021/12/10 14:43:06;;;;;;;150.60;19.27;;;;;;;;;;6071890;23;20017;-90
2021/12/10 14:45:32;;;;;;;15.77;7.22;;;;;;;;;;6096951;23;20099;-90